sensor_id;sensor_type;location;lat;lon;timestamp;temperature;humidity
8856;DHT22;4464;50.882;4.730;2023-10-09T00:02:09;16.20;99.90
8856;DHT22;4464;50.882;4.730;2023-10-09T00:04:37;16.20;99.90
8856;DHT22;4464;50.882;4.730;2023-10-09T00:07:04;16.20;99.90
8856;DHT22;4464;50.882;4.730;2023-10-09T00:09:36;16.30;99.90
8856;DHT22;4464;50.882;4.730;2023-10-09T00:12:11;16.20;99.90
8856;DHT22;4464;50.882;4.730;2023-10-09T00:14:37;16.20;99.90
8856;DHT22;4464;50.882;4.730;2023-10-09T00:17:04;16.30;99.90
8856;DHT22;4464;50.882;4.730;2023-10-09T00:19:36;16.30;99.90
8856;DHT22;4464;50.882;4.730;2023-10-09T00:22:03;16.30;99.90
8856;DHT22;4464;50.882;4.730;2023-10-09T00:24:47;16.40;99.90
8856;DHT22;4464;50.882;4.730;2023-10-09T00:27:18;16.40;99.90
8856;DHT22;4464;50.882;4.730;2023-10-09T00:29:47;16.40;99.90
8856;DHT22;4464;50.882;4.730;2023-10-09T00:32:15;16.50;99.90
8856;DHT22;4464;50.882;4.730;2023-10-09T00:35:00;16.50;99.90
8856;DHT22;4464;50.882;4.730;2023-10-09T00:37:46;16.50;99.90
8856;DHT22;4464;50.882;4.730;2023-10-09T00:40:17;16.50;99.90
8856;DHT22;4464;50.882;4.730;2023-10-09T00:42:51;16.40;99.90
8856;DHT22;4464;50.882;4.730;2023-10-09T00:45:21;16.40;99.90
8856;DHT22;4464;50.882;4.730;2023-10-09T00:47:58;16.40;99.90
8856;DHT22;4464;50.882;4.730;2023-10-09T00:50:27;16.50;99.90
8856;DHT22;4464;50.882;4.730;2023-10-09T00:53:01;16.40;99.90
8856;DHT22;4464;50.882;4.730;2023-10-09T00:55:32;16.40;99.90
8856;DHT22;4464;50.882;4.730;2023-10-09T00:58:24;16.40;99.90
8856;DHT22;4464;50.882;4.730;2023-10-09T01:00:56;16.40;99.90
8856;DHT22;4464;50.882;4.730;2023-10-09T01:03:27;16.40;99.90
8856;DHT22;4464;50.882;4.730;2023-10-09T01:05:57;16.30;99.90
8856;DHT22;4464;50.882;4.730;2023-10-09T01:08:39;16.30;99.90
8856;DHT22;4464;50.882;4.730;2023-10-09T01:11:05;16.20;99.90
8856;DHT22;4464;50.882;4.730;2023-10-09T01:13:45;16.20;99.90
8856;DHT22;4464;50.882;4.730;2023-10-09T01:16:15;16.20;99.90
8856;DHT22;4464;50.882;4.730;2023-10-09T01:18:49;16.10;99.90
8856;DHT22;4464;50.882;4.730;2023-10-09T01:21:15;16.10;99.90
8856;DHT22;4464;50.882;4.730;2023-10-09T01:23:45;16.00;99.90
8856;DHT22;4464;50.882;4.730;2023-10-09T01:26:39;16.00;99.90
8856;DHT22;4464;50.882;4.730;2023-10-09T01:29:10;16.00;99.90
8856;DHT22;4464;50.882;4.730;2023-10-09T01:34:32;16.00;99.90
8856;DHT22;4464;50.882;4.730;2023-10-09T01:37:09;16.00;99.90
8856;DHT22;4464;50.882;4.730;2023-10-09T01:39:39;16.00;99.90
8856;DHT22;4464;50.882;4.730;2023-10-09T01:42:08;16.00;99.90
8856;DHT22;4464;50.882;4.730;2023-10-09T01:44:35;16.10;99.90
8856;DHT22;4464;50.882;4.730;2023-10-09T01:47:04;16.00;99.90
8856;DHT22;4464;50.882;4.730;2023-10-09T01:49:37;16.10;99.90
8856;DHT22;4464;50.882;4.730;2023-10-09T01:52:07;16.10;99.90
8856;DHT22;4464;50.882;4.730;2023-10-09T01:54:39;16.10;99.90
8856;DHT22;4464;50.882;4.730;2023-10-09T01:57:11;16.10;99.90
8856;DHT22;4464;50.882;4.730;2023-10-09T01:59:42;16.10;99.90
8856;DHT22;4464;50.882;4.730;2023-10-09T02:02:14;16.10;99.90
8856;DHT22;4464;50.882;4.730;2023-10-09T02:04:53;16.10;99.90
8856;DHT22;4464;50.882;4.730;2023-10-09T02:07:20;16.10;99.90
8856;DHT22;4464;50.882;4.730;2023-10-09T02:09:57;16.10;99.90
8856;DHT22;4464;50.882;4.730;2023-10-09T02:12:23;16.10;99.90
8856;DHT22;4464;50.882;4.730;2023-10-09T02:14:58;16.10;99.90
8856;DHT22;4464;50.882;4.730;2023-10-09T02:17:31;16.20;99.90
8856;DHT22;4464;50.882;4.730;2023-10-09T02:20:02;16.30;99.90
8856;DHT22;4464;50.882;4.730;2023-10-09T02:22:42;16.30;99.90
8856;DHT22;4464;50.882;4.730;2023-10-09T02:25:08;16.30;99.90
8856;DHT22;4464;50.882;4.730;2023-10-09T02:27:36;16.30;99.90
8856;DHT22;4464;50.882;4.730;2023-10-09T02:30:10;16.40;99.90
8856;DHT22;4464;50.882;4.730;2023-10-09T02:32:46;16.30;99.90
8856;DHT22;4464;50.882;4.730;2023-10-09T02:35:18;16.30;99.90
8856;DHT22;4464;50.882;4.730;2023-10-09T02:38:02;16.20;99.90
8856;DHT22;4464;50.882;4.730;2023-10-09T02:40:32;16.20;99.90
8856;DHT22;4464;50.882;4.730;2023-10-09T02:43:07;16.20;99.90
8856;DHT22;4464;50.882;4.730;2023-10-09T02:45:37;16.10;99.90
8856;DHT22;4464;50.882;4.730;2023-10-09T02:48:18;16.20;99.90
8856;DHT22;4464;50.882;4.730;2023-10-09T02:50:51;16.10;99.90
8856;DHT22;4464;50.882;4.730;2023-10-09T02:53:17;16.20;99.90
8856;DHT22;4464;50.882;4.730;2023-10-09T02:55:55;16.20;99.90
8856;DHT22;4464;50.882;4.730;2023-10-09T02:58:40;16.20;99.90
8856;DHT22;4464;50.882;4.730;2023-10-09T03:01:12;16.30;99.90
8856;DHT22;4464;50.882;4.730;2023-10-09T03:03:44;16.20;99.90
8856;DHT22;4464;50.882;4.730;2023-10-09T03:06:17;16.10;99.90
8856;DHT22;4464;50.882;4.730;2023-10-09T03:08:50;16.00;99.90
8856;DHT22;4464;50.882;4.730;2023-10-09T03:11:16;16.00;99.90
8856;DHT22;4464;50.882;4.730;2023-10-09T03:13:43;16.00;99.90
8856;DHT22;4464;50.882;4.730;2023-10-09T03:16:13;15.90;99.90
8856;DHT22;4464;50.882;4.730;2023-10-09T03:18:53;16.00;99.90
8856;DHT22;4464;50.882;4.730;2023-10-09T03:21:21;16.00;99.90
8856;DHT22;4464;50.882;4.730;2023-10-09T03:23:47;16.00;99.90
8856;DHT22;4464;50.882;4.730;2023-10-09T03:26:19;16.00;99.90
8856;DHT22;4464;50.882;4.730;2023-10-09T03:28:46;16.10;99.90
8856;DHT22;4464;50.882;4.730;2023-10-09T03:31:12;16.00;99.90
8856;DHT22;4464;50.882;4.730;2023-10-09T03:33:39;16.00;99.90
8856;DHT22;4464;50.882;4.730;2023-10-09T03:36:05;16.00;99.90
8856;DHT22;4464;50.882;4.730;2023-10-09T03:44:39;15.90;99.90
8856;DHT22;4464;50.882;4.730;2023-10-09T03:47:10;16.00;99.90
8856;DHT22;4464;50.882;4.730;2023-10-09T03:49:36;15.90;99.90
8856;DHT22;4464;50.882;4.730;2023-10-09T03:52:05;15.90;99.90
8856;DHT22;4464;50.882;4.730;2023-10-09T03:54:35;15.80;99.90
8856;DHT22;4464;50.882;4.730;2023-10-09T03:57:01;15.80;99.90
8856;DHT22;4464;50.882;4.730;2023-10-09T03:59:28;15.80;99.90
8856;DHT22;4464;50.882;4.730;2023-10-09T04:01:57;15.70;99.90
8856;DHT22;4464;50.882;4.730;2023-10-09T04:04:25;15.70;99.90
8856;DHT22;4464;50.882;4.730;2023-10-09T04:06:53;15.60;99.90
8856;DHT22;4464;50.882;4.730;2023-10-09T04:09:21;15.60;99.90
8856;DHT22;4464;50.882;4.730;2023-10-09T04:11:48;15.60;99.90
8856;DHT22;4464;50.882;4.730;2023-10-09T04:14:23;15.60;99.90
8856;DHT22;4464;50.882;4.730;2023-10-09T04:16:58;15.60;99.90
8856;DHT22;4464;50.882;4.730;2023-10-09T04:19:48;15.60;99.90
8856;DHT22;4464;50.882;4.730;2023-10-09T04:22:34;15.70;99.90
8856;DHT22;4464;50.882;4.730;2023-10-09T04:25:05;15.70;99.90
8856;DHT22;4464;50.882;4.730;2023-10-09T04:27:43;15.70;99.90
8856;DHT22;4464;50.882;4.730;2023-10-09T04:30:13;15.70;99.90
8856;DHT22;4464;50.882;4.730;2023-10-09T04:32:44;15.80;99.90
8856;DHT22;4464;50.882;4.730;2023-10-09T04:35:11;15.90;99.90
8856;DHT22;4464;50.882;4.730;2023-10-09T04:37:55;15.90;99.90
8856;DHT22;4464;50.882;4.730;2023-10-09T04:40:35;15.80;99.90
8856;DHT22;4464;50.882;4.730;2023-10-09T04:43:14;15.90;99.90
8856;DHT22;4464;50.882;4.730;2023-10-09T04:45:49;15.90;99.90
8856;DHT22;4464;50.882;4.730;2023-10-09T04:48:35;15.80;99.90
8856;DHT22;4464;50.882;4.730;2023-10-09T04:51:06;15.80;99.90
8856;DHT22;4464;50.882;4.730;2023-10-09T04:53:58;15.90;99.90
8856;DHT22;4464;50.882;4.730;2023-10-09T04:56:44;15.90;99.90
8856;DHT22;4464;50.882;4.730;2023-10-09T04:59:19;15.90;99.90
8856;DHT22;4464;50.882;4.730;2023-10-09T05:01:50;16.00;99.90
8856;DHT22;4464;50.882;4.730;2023-10-09T05:04:24;16.00;99.90
8856;DHT22;4464;50.882;4.730;2023-10-09T05:07:04;16.00;99.90
8856;DHT22;4464;50.882;4.730;2023-10-09T05:09:49;16.00;99.90
8856;DHT22;4464;50.882;4.730;2023-10-09T05:12:22;15.90;99.90
8856;DHT22;4464;50.882;4.730;2023-10-09T05:14:52;15.90;99.90
8856;DHT22;4464;50.882;4.730;2023-10-09T05:17:47;15.90;99.90
8856;DHT22;4464;50.882;4.730;2023-10-09T05:20:24;15.80;99.90
8856;DHT22;4464;50.882;4.730;2023-10-09T05:22:53;15.80;99.90
8856;DHT22;4464;50.882;4.730;2023-10-09T05:25:38;15.80;99.90
8856;DHT22;4464;50.882;4.730;2023-10-09T05:28:27;15.80;99.90
8856;DHT22;4464;50.882;4.730;2023-10-09T05:31:15;15.80;99.90
8856;DHT22;4464;50.882;4.730;2023-10-09T05:34:16;15.80;99.90
8856;DHT22;4464;50.882;4.730;2023-10-09T05:36:45;15.70;99.90
8856;DHT22;4464;50.882;4.730;2023-10-09T05:39:15;15.70;99.90
8856;DHT22;4464;50.882;4.730;2023-10-09T05:41:55;15.70;99.90
8856;DHT22;4464;50.882;4.730;2023-10-09T05:44:34;15.70;99.90
8856;DHT22;4464;50.882;4.730;2023-10-09T05:47:18;15.70;99.90
8856;DHT22;4464;50.882;4.730;2023-10-09T05:49:58;15.70;99.90
8856;DHT22;4464;50.882;4.730;2023-10-09T05:52:47;15.70;99.90
8856;DHT22;4464;50.882;4.730;2023-10-09T05:55:23;15.70;99.90
8856;DHT22;4464;50.882;4.730;2023-10-09T05:58:06;15.70;99.90
8856;DHT22;4464;50.882;4.730;2023-10-09T06:00:37;15.70;99.90
8856;DHT22;4464;50.882;4.730;2023-10-09T06:03:24;15.70;99.90
8856;DHT22;4464;50.882;4.730;2023-10-09T06:06:13;15.70;99.90
8856;DHT22;4464;50.882;4.730;2023-10-09T06:09:03;15.70;99.90
8856;DHT22;4464;50.882;4.730;2023-10-09T06:14:17;15.90;99.90
8856;DHT22;4464;50.882;4.730;2023-10-09T06:17:12;15.90;99.90
8856;DHT22;4464;50.882;4.730;2023-10-09T06:19:52;15.90;99.90
8856;DHT22;4464;50.882;4.730;2023-10-09T06:22:24;15.90;99.90
8856;DHT22;4464;50.882;4.730;2023-10-09T06:25:09;16.00;99.90
8856;DHT22;4464;50.882;4.730;2023-10-09T06:27:36;16.00;99.90
8856;DHT22;4464;50.882;4.730;2023-10-09T06:30:02;16.00;99.90
8856;DHT22;4464;50.882;4.730;2023-10-09T06:32:38;15.90;99.90
8856;DHT22;4464;50.882;4.730;2023-10-09T06:35:15;16.00;99.90
8856;DHT22;4464;50.882;4.730;2023-10-09T06:37:49;15.90;99.90
8856;DHT22;4464;50.882;4.730;2023-10-09T06:40:28;16.00;99.90
8856;DHT22;4464;50.882;4.730;2023-10-09T06:43:15;16.10;99.90
8856;DHT22;4464;50.882;4.730;2023-10-09T06:45:54;16.10;99.90
8856;DHT22;4464;50.882;4.730;2023-10-09T06:48:23;16.10;99.90
8856;DHT22;4464;50.882;4.730;2023-10-09T06:51:12;16.10;99.90
8856;DHT22;4464;50.882;4.730;2023-10-09T06:53:53;16.10;99.90
8856;DHT22;4464;50.882;4.730;2023-10-09T06:56:20;16.10;99.90
8856;DHT22;4464;50.882;4.730;2023-10-09T06:59:17;16.10;99.90
8856;DHT22;4464;50.882;4.730;2023-10-09T07:01:51;16.20;99.90
8856;DHT22;4464;50.882;4.730;2023-10-09T07:04:37;16.20;99.90
8856;DHT22;4464;50.882;4.730;2023-10-09T07:07:03;16.30;99.90
8856;DHT22;4464;50.882;4.730;2023-10-09T07:09:50;16.30;99.90
8856;DHT22;4464;50.882;4.730;2023-10-09T07:12:34;16.40;99.90
8856;DHT22;4464;50.882;4.730;2023-10-09T07:15:08;16.50;99.90
8856;DHT22;4464;50.882;4.730;2023-10-09T07:17:34;16.60;99.90
8856;DHT22;4464;50.882;4.730;2023-10-09T07:20:00;16.70;99.90
8856;DHT22;4464;50.882;4.730;2023-10-09T07:22:37;16.80;99.90
8856;DHT22;4464;50.882;4.730;2023-10-09T07:25:19;16.80;99.90
8856;DHT22;4464;50.882;4.730;2023-10-09T07:28:04;16.90;99.90
8856;DHT22;4464;50.882;4.730;2023-10-09T07:30:44;17.00;99.90
8856;DHT22;4464;50.882;4.730;2023-10-09T07:33:11;17.10;99.90
8856;DHT22;4464;50.882;4.730;2023-10-09T07:35:41;17.30;99.90
8856;DHT22;4464;50.882;4.730;2023-10-09T07:38:24;17.40;99.90
8856;DHT22;4464;50.882;4.730;2023-10-09T07:41:10;17.50;99.90
8856;DHT22;4464;50.882;4.730;2023-10-09T07:43:39;17.30;99.90
8856;DHT22;4464;50.882;4.730;2023-10-09T07:46:15;17.40;99.90
8856;DHT22;4464;50.882;4.730;2023-10-09T07:49:00;17.40;99.90
8856;DHT22;4464;50.882;4.730;2023-10-09T07:51:36;17.60;99.90
8856;DHT22;4464;50.882;4.730;2023-10-09T07:54:04;17.50;99.90
8856;DHT22;4464;50.882;4.730;2023-10-09T07:56:34;17.60;99.90
8856;DHT22;4464;50.882;4.730;2023-10-09T07:59:16;17.90;99.90
8856;DHT22;4464;50.882;4.730;2023-10-09T08:01:48;18.20;99.90
8856;DHT22;4464;50.882;4.730;2023-10-09T08:04:26;18.40;99.90
8856;DHT22;4464;50.882;4.730;2023-10-09T08:07:09;18.80;99.90
8856;DHT22;4464;50.882;4.730;2023-10-09T08:09:45;19.10;99.90
8856;DHT22;4464;50.882;4.730;2023-10-09T08:12:40;19.00;99.90
8856;DHT22;4464;50.882;4.730;2023-10-09T08:15:16;18.80;99.90
8856;DHT22;4464;50.882;4.730;2023-10-09T08:17:55;18.80;99.90
8856;DHT22;4464;50.882;4.730;2023-10-09T08:20:28;18.70;99.90
8856;DHT22;4464;50.882;4.730;2023-10-09T08:23:13;18.70;99.90
8856;DHT22;4464;50.882;4.730;2023-10-09T08:25:47;18.50;99.90
8856;DHT22;4464;50.882;4.730;2023-10-09T08:28:36;18.50;99.90
8856;DHT22;4464;50.882;4.730;2023-10-09T08:31:17;18.60;99.90
8856;DHT22;4464;50.882;4.730;2023-10-09T08:34:11;18.70;99.90
8856;DHT22;4464;50.882;4.730;2023-10-09T08:36:54;18.60;99.90
8856;DHT22;4464;50.882;4.730;2023-10-09T08:39:23;18.60;99.90
8856;DHT22;4464;50.882;4.730;2023-10-09T08:41:55;18.70;99.90
8856;DHT22;4464;50.882;4.730;2023-10-09T08:44:25;19.30;99.90
8856;DHT22;4464;50.882;4.730;2023-10-09T08:46:56;19.50;99.90
8856;DHT22;4464;50.882;4.730;2023-10-09T08:49:23;19.50;99.90
8856;DHT22;4464;50.882;4.730;2023-10-09T08:51:49;19.50;99.90
8856;DHT22;4464;50.882;4.730;2023-10-09T08:54:18;19.50;99.90
8856;DHT22;4464;50.882;4.730;2023-10-09T08:56:47;19.50;99.90
8856;DHT22;4464;50.882;4.730;2023-10-09T08:59:16;19.40;99.90
8856;DHT22;4464;50.882;4.730;2023-10-09T09:01:46;19.60;99.90
8856;DHT22;4464;50.882;4.730;2023-10-09T09:07:00;19.90;99.90
8856;DHT22;4464;50.882;4.730;2023-10-09T09:09:34;20.10;99.90
8856;DHT22;4464;50.882;4.730;2023-10-09T09:12:00;20.50;99.90
8856;DHT22;4464;50.882;4.730;2023-10-09T09:14:39;21.20;99.90
8856;DHT22;4464;50.882;4.730;2023-10-09T09:17:06;21.70;99.90
8856;DHT22;4464;50.882;4.730;2023-10-09T09:19:36;22.00;99.90
8856;DHT22;4464;50.882;4.730;2023-10-09T09:22:05;22.10;99.90
8856;DHT22;4464;50.882;4.730;2023-10-09T09:24:38;21.80;99.90
8856;DHT22;4464;50.882;4.730;2023-10-09T09:27:07;21.50;99.90
8856;DHT22;4464;50.882;4.730;2023-10-09T09:29:39;21.60;99.90
8856;DHT22;4464;50.882;4.730;2023-10-09T09:32:10;21.60;99.90
8856;DHT22;4464;50.882;4.730;2023-10-09T09:34:57;21.40;99.90
8856;DHT22;4464;50.882;4.730;2023-10-09T09:37:28;21.20;99.90
8856;DHT22;4464;50.882;4.730;2023-10-09T09:40:04;21.00;99.90
8856;DHT22;4464;50.882;4.730;2023-10-09T09:43:01;21.30;99.90
8856;DHT22;4464;50.882;4.730;2023-10-09T09:45:43;21.70;99.90
8856;DHT22;4464;50.882;4.730;2023-10-09T09:48:16;22.20;99.90
8856;DHT22;4464;50.882;4.730;2023-10-09T09:50:43;23.20;99.90
8856;DHT22;4464;50.882;4.730;2023-10-09T09:53:15;23.60;99.90
8856;DHT22;4464;50.882;4.730;2023-10-09T09:55:54;23.40;99.90
8856;DHT22;4464;50.882;4.730;2023-10-09T09:58:26;23.30;99.90
8856;DHT22;4464;50.882;4.730;2023-10-09T10:01:05;23.50;99.90
8856;DHT22;4464;50.882;4.730;2023-10-09T10:04:00;23.40;99.90
8856;DHT22;4464;50.882;4.730;2023-10-09T10:06:29;22.90;99.90
8856;DHT22;4464;50.882;4.730;2023-10-09T10:08:58;23.10;99.90
8856;DHT22;4464;50.882;4.730;2023-10-09T10:14:14;22.20;99.90
8856;DHT22;4464;50.882;4.730;2023-10-09T10:17:03;22.30;99.90
8856;DHT22;4464;50.882;4.730;2023-10-09T10:22:26;21.80;99.90
8856;DHT22;4464;50.882;4.730;2023-10-09T10:24:53;21.50;99.90
8856;DHT22;4464;50.882;4.730;2023-10-09T10:27:25;21.40;99.90
8856;DHT22;4464;50.882;4.730;2023-10-09T10:35:21;22.20;99.90
8856;DHT22;4464;50.882;4.730;2023-10-09T10:37:58;22.50;99.90
8856;DHT22;4464;50.882;4.730;2023-10-09T10:40:33;22.50;99.90
8856;DHT22;4464;50.882;4.730;2023-10-09T10:43:15;23.00;99.90
8856;DHT22;4464;50.882;4.730;2023-10-09T10:48:35;22.70;99.90
8856;DHT22;4464;50.882;4.730;2023-10-09T10:51:04;22.50;99.90
8856;DHT22;4464;50.882;4.730;2023-10-09T10:53:37;22.70;99.90
8856;DHT22;4464;50.882;4.730;2023-10-09T10:56:14;22.50;99.90
8856;DHT22;4464;50.882;4.730;2023-10-09T10:58:52;22.40;99.90
8856;DHT22;4464;50.882;4.730;2023-10-09T11:01:31;22.40;99.90
8856;DHT22;4464;50.882;4.730;2023-10-09T11:04:23;22.30;99.90
8856;DHT22;4464;50.882;4.730;2023-10-09T11:07:02;22.40;99.90
8856;DHT22;4464;50.882;4.730;2023-10-09T11:09:49;22.70;99.90
8856;DHT22;4464;50.882;4.730;2023-10-09T11:15:11;22.40;99.90
8856;DHT22;4464;50.882;4.730;2023-10-09T11:20:33;22.30;99.90
8856;DHT22;4464;50.882;4.730;2023-10-09T11:23:02;22.30;99.90
8856;DHT22;4464;50.882;4.730;2023-10-09T11:25:32;22.30;99.90
8856;DHT22;4464;50.882;4.730;2023-10-09T11:28:01;22.40;99.90
8856;DHT22;4464;50.882;4.730;2023-10-09T11:30:46;22.50;99.90
8856;DHT22;4464;50.882;4.730;2023-10-09T11:33:12;22.30;99.90
8856;DHT22;4464;50.882;4.730;2023-10-09T11:35:41;22.60;99.90
8856;DHT22;4464;50.882;4.730;2023-10-09T11:38:09;22.80;99.90
8856;DHT22;4464;50.882;4.730;2023-10-09T11:40:48;22.60;99.90
8856;DHT22;4464;50.882;4.730;2023-10-09T11:43:20;22.50;99.90
8856;DHT22;4464;50.882;4.730;2023-10-09T11:46:09;22.50;99.90
8856;DHT22;4464;50.882;4.730;2023-10-09T11:49:08;22.60;99.90
8856;DHT22;4464;50.882;4.730;2023-10-09T11:51:46;22.60;99.90
8856;DHT22;4464;50.882;4.730;2023-10-09T11:54:44;22.50;99.90
8856;DHT22;4464;50.882;4.730;2023-10-09T11:57:10;22.70;99.90
8856;DHT22;4464;50.882;4.730;2023-10-09T11:59:36;22.40;99.90
8856;DHT22;4464;50.882;4.730;2023-10-09T12:02:06;22.30;99.90
8856;DHT22;4464;50.882;4.730;2023-10-09T12:04:39;22.30;99.90
8856;DHT22;4464;50.882;4.730;2023-10-09T12:07:11;22.40;99.90
8856;DHT22;4464;50.882;4.730;2023-10-09T12:09:40;22.60;99.90
8856;DHT22;4464;50.882;4.730;2023-10-09T12:12:08;22.70;99.90
8856;DHT22;4464;50.882;4.730;2023-10-09T12:14:37;22.80;99.90
8856;DHT22;4464;50.882;4.730;2023-10-09T12:17:07;22.90;99.90
8856;DHT22;4464;50.882;4.730;2023-10-09T12:19:33;23.40;99.90
8856;DHT22;4464;50.882;4.730;2023-10-09T12:22:04;23.20;99.90
8856;DHT22;4464;50.882;4.730;2023-10-09T12:24:34;23.30;99.90
8856;DHT22;4464;50.882;4.730;2023-10-09T12:27:01;23.40;99.90
8856;DHT22;4464;50.882;4.730;2023-10-09T12:29:35;23.40;99.90
8856;DHT22;4464;50.882;4.730;2023-10-09T12:32:01;23.40;99.90
8856;DHT22;4464;50.882;4.730;2023-10-09T12:34:28;23.30;99.90
8856;DHT22;4464;50.882;4.730;2023-10-09T12:36:58;23.40;99.90
8856;DHT22;4464;50.882;4.730;2023-10-09T12:39:27;23.10;99.90
8856;DHT22;4464;50.882;4.730;2023-10-09T12:42:00;22.90;99.90
8856;DHT22;4464;50.882;4.730;2023-10-09T12:44:35;22.60;99.90
8856;DHT22;4464;50.882;4.730;2023-10-09T12:47:08;22.40;99.90
8856;DHT22;4464;50.882;4.730;2023-10-09T12:49:37;22.40;99.90
8856;DHT22;4464;50.882;4.730;2023-10-09T12:52:07;22.50;99.90
8856;DHT22;4464;50.882;4.730;2023-10-09T12:54:44;22.80;99.90
8856;DHT22;4464;50.882;4.730;2023-10-09T12:57:15;22.80;99.90
8856;DHT22;4464;50.882;4.730;2023-10-09T12:59:41;22.70;99.90
8856;DHT22;4464;50.882;4.730;2023-10-09T13:02:19;22.60;99.90
8856;DHT22;4464;50.882;4.730;2023-10-09T13:04:57;22.50;99.90
8856;DHT22;4464;50.882;4.730;2023-10-09T13:07:25;22.50;99.90
8856;DHT22;4464;50.882;4.730;2023-10-09T13:09:51;22.50;99.90
8856;DHT22;4464;50.882;4.730;2023-10-09T13:12:35;22.60;99.90
8856;DHT22;4464;50.882;4.730;2023-10-09T13:15:08;22.40;99.90
8856;DHT22;4464;50.882;4.730;2023-10-09T13:17:40;22.50;99.90
8856;DHT22;4464;50.882;4.730;2023-10-09T13:20:07;22.60;99.90
8856;DHT22;4464;50.882;4.730;2023-10-09T13:22:43;22.70;99.90
8856;DHT22;4464;50.882;4.730;2023-10-09T13:25:10;22.70;99.90
8856;DHT22;4464;50.882;4.730;2023-10-09T13:27:50;22.60;99.90
8856;DHT22;4464;50.882;4.730;2023-10-09T13:30:21;22.60;99.90
8856;DHT22;4464;50.882;4.730;2023-10-09T13:32:52;22.40;99.90
8856;DHT22;4464;50.882;4.730;2023-10-09T13:35:18;22.40;99.90
8856;DHT22;4464;50.882;4.730;2023-10-09T13:37:45;22.40;99.90
8856;DHT22;4464;50.882;4.730;2023-10-09T13:40:22;23.00;99.90
8856;DHT22;4464;50.882;4.730;2023-10-09T13:42:55;23.50;99.90
8856;DHT22;4464;50.882;4.730;2023-10-09T13:45:30;23.90;99.90
8856;DHT22;4464;50.882;4.730;2023-10-09T13:47:57;24.30;99.90
8856;DHT22;4464;50.882;4.730;2023-10-09T13:50:28;24.50;99.90
8856;DHT22;4464;50.882;4.730;2023-10-09T13:52:58;24.00;99.90
8856;DHT22;4464;50.882;4.730;2023-10-09T13:55:23;23.50;99.90
8856;DHT22;4464;50.882;4.730;2023-10-09T13:57:59;23.20;99.90
8856;DHT22;4464;50.882;4.730;2023-10-09T14:00:25;23.00;99.90
8856;DHT22;4464;50.882;4.730;2023-10-09T14:03:08;22.70;99.90
8856;DHT22;4464;50.882;4.730;2023-10-09T14:05:42;22.40;99.90
8856;DHT22;4464;50.882;4.730;2023-10-09T14:08:23;22.20;99.90
8856;DHT22;4464;50.882;4.730;2023-10-09T14:10:53;22.10;99.90
8856;DHT22;4464;50.882;4.730;2023-10-09T14:13:20;22.10;99.90
8856;DHT22;4464;50.882;4.730;2023-10-09T14:15:53;22.00;99.90
8856;DHT22;4464;50.882;4.730;2023-10-09T14:18:22;22.00;99.90
8856;DHT22;4464;50.882;4.730;2023-10-09T14:20:48;21.90;99.90
8856;DHT22;4464;50.882;4.730;2023-10-09T14:23:15;22.00;99.90
8856;DHT22;4464;50.882;4.730;2023-10-09T14:25:46;22.10;99.90
8856;DHT22;4464;50.882;4.730;2023-10-09T14:28:15;22.30;99.90
8856;DHT22;4464;50.882;4.730;2023-10-09T14:30:45;22.50;99.90
8856;DHT22;4464;50.882;4.730;2023-10-09T14:33:13;22.60;99.90
8856;DHT22;4464;50.882;4.730;2023-10-09T14:35:43;22.50;99.90
8856;DHT22;4464;50.882;4.730;2023-10-09T14:38:11;22.60;99.90
8856;DHT22;4464;50.882;4.730;2023-10-09T14:40:44;22.50;99.90
8856;DHT22;4464;50.882;4.730;2023-10-09T14:43:11;22.70;99.90
8856;DHT22;4464;50.882;4.730;2023-10-09T14:45:48;23.00;99.90
8856;DHT22;4464;50.882;4.730;2023-10-09T14:48:20;23.30;99.90
8856;DHT22;4464;50.882;4.730;2023-10-09T14:50:52;23.70;99.90
8856;DHT22;4464;50.882;4.730;2023-10-09T14:53:23;23.60;99.90
8856;DHT22;4464;50.882;4.730;2023-10-09T14:55:56;23.30;99.90
8856;DHT22;4464;50.882;4.730;2023-10-09T14:58:22;23.00;99.90
8856;DHT22;4464;50.882;4.730;2023-10-09T15:00:54;22.80;99.90
8856;DHT22;4464;50.882;4.730;2023-10-09T15:03:20;22.50;99.90
8856;DHT22;4464;50.882;4.730;2023-10-09T15:05:49;22.30;99.90
8856;DHT22;4464;50.882;4.730;2023-10-09T15:08:17;22.10;99.90
8856;DHT22;4464;50.882;4.730;2023-10-09T15:10:46;22.00;99.90
8856;DHT22;4464;50.882;4.730;2023-10-09T15:13:13;22.00;99.90
8856;DHT22;4464;50.882;4.730;2023-10-09T15:15:43;21.90;99.90
8856;DHT22;4464;50.882;4.730;2023-10-09T15:18:09;21.90;99.90
8856;DHT22;4464;50.882;4.730;2023-10-09T15:20:38;21.90;99.90
8856;DHT22;4464;50.882;4.730;2023-10-09T15:23:08;21.90;99.90
8856;DHT22;4464;50.882;4.730;2023-10-09T15:25:34;22.10;99.90
8856;DHT22;4464;50.882;4.730;2023-10-09T15:28:03;21.90;99.90
8856;DHT22;4464;50.882;4.730;2023-10-09T15:30:29;22.00;99.90
8856;DHT22;4464;50.882;4.730;2023-10-09T15:32:59;21.90;99.90
8856;DHT22;4464;50.882;4.730;2023-10-09T15:35:27;21.70;99.90
8856;DHT22;4464;50.882;4.730;2023-10-09T15:38:03;21.60;99.90
8856;DHT22;4464;50.882;4.730;2023-10-09T15:40:32;21.50;99.90
8856;DHT22;4464;50.882;4.730;2023-10-09T15:43:03;21.50;99.90
8856;DHT22;4464;50.882;4.730;2023-10-09T15:45:39;21.50;99.90
8856;DHT22;4464;50.882;4.730;2023-10-09T15:48:06;21.40;99.90
8856;DHT22;4464;50.882;4.730;2023-10-09T15:50:32;21.30;99.90
8856;DHT22;4464;50.882;4.730;2023-10-09T15:53:02;21.50;99.90
8856;DHT22;4464;50.882;4.730;2023-10-09T15:55:28;21.70;99.90
8856;DHT22;4464;50.882;4.730;2023-10-09T15:57:54;21.80;99.90
8856;DHT22;4464;50.882;4.730;2023-10-09T16:00:21;22.00;99.90
8856;DHT22;4464;50.882;4.730;2023-10-09T16:02:53;22.50;99.90
8856;DHT22;4464;50.882;4.730;2023-10-09T16:05:20;23.20;99.90
8856;DHT22;4464;50.882;4.730;2023-10-09T16:07:54;23.80;99.90
8856;DHT22;4464;50.882;4.730;2023-10-09T16:10:21;24.00;99.90
8856;DHT22;4464;50.882;4.730;2023-10-09T16:12:47;24.20;99.90
8856;DHT22;4464;50.882;4.730;2023-10-09T16:15:14;24.00;99.90
8856;DHT22;4464;50.882;4.730;2023-10-09T16:17:40;23.50;99.90
8856;DHT22;4464;50.882;4.730;2023-10-09T16:20:08;23.10;99.90
8856;DHT22;4464;50.882;4.730;2023-10-09T16:22:45;22.70;99.90
8856;DHT22;4464;50.882;4.730;2023-10-09T16:25:11;22.30;99.90
8856;DHT22;4464;50.882;4.730;2023-10-09T16:27:39;22.00;99.90
8856;DHT22;4464;50.882;4.730;2023-10-09T16:30:17;21.70;99.90
8856;DHT22;4464;50.882;4.730;2023-10-09T16:32:50;21.40;99.90
8856;DHT22;4464;50.882;4.730;2023-10-09T16:35:16;21.20;99.90
8856;DHT22;4464;50.882;4.730;2023-10-09T16:37:43;20.80;99.90
8856;DHT22;4464;50.882;4.730;2023-10-09T16:40:15;20.70;99.90
8856;DHT22;4464;50.882;4.730;2023-10-09T16:42:48;20.60;99.90
8856;DHT22;4464;50.882;4.730;2023-10-09T16:45:18;20.50;99.90
8856;DHT22;4464;50.882;4.730;2023-10-09T16:47:45;20.30;99.90
8856;DHT22;4464;50.882;4.730;2023-10-09T16:50:14;20.30;99.90
8856;DHT22;4464;50.882;4.730;2023-10-09T16:52:46;20.30;99.90
8856;DHT22;4464;50.882;4.730;2023-10-09T16:55:12;20.20;99.90
8856;DHT22;4464;50.882;4.730;2023-10-09T16:57:39;20.10;99.90
8856;DHT22;4464;50.882;4.730;2023-10-09T17:00:10;20.00;99.90
8856;DHT22;4464;50.882;4.730;2023-10-09T17:02:41;19.80;99.90
8856;DHT22;4464;50.882;4.730;2023-10-09T17:05:08;19.70;99.90
8856;DHT22;4464;50.882;4.730;2023-10-09T17:07:54;19.60;99.90
8856;DHT22;4464;50.882;4.730;2023-10-09T17:10:21;19.50;99.90
8856;DHT22;4464;50.882;4.730;2023-10-09T17:12:52;19.40;99.90
8856;DHT22;4464;50.882;4.730;2023-10-09T17:15:18;19.30;99.90
8856;DHT22;4464;50.882;4.730;2023-10-09T17:17:44;19.20;99.90